Letham, United Kingdom
Current Conditions -  °F | °C
As of 8:20 PM on Thursday 30 Oct 2014 (Local Time) from EGPN Reporting Station
Light Rain Light Rain  
Wind Chill: 54°   Ceiling: 2000
Heat Index: 54°   Visibility: 4mi
Dew Point: 54°   Wind: 1mph
Humidity: 100%   Direction: 80°E
Pressure: 29.85"   Gusts: NA
Location:  56.62°N, 2.77°W
Report Text: EGPN 302020Z 08001KT 7000 -RA FEW008 SCT011 BKN020 12/12 Q1011
Loading
Personal Weather Stations






























Interactive Weather Map New forecast layout! Learn more

10-Day Weather Forecast

Advertisements
Track Severe Weather on mobile